sensor_id;sensor_type;location;lat;lon;timestamp;pressure;altitude;pressure_sealevel;temperature;humidity
54808;BME280;40708;50.364;7.550;2023-07-09T00:00:12;100846.44;;;21.40;100.00
54808;BME280;40708;50.364;7.550;2023-07-09T00:02:39;100860.16;;;21.33;100.00
54808;BME280;40708;50.364;7.550;2023-07-09T00:05:05;100877.34;;;21.31;100.00
54808;BME280;40708;50.364;7.550;2023-07-09T00:07:31;100869.41;;;21.26;100.00
54808;BME280;40708;50.364;7.550;2023-07-09T00:09:58;100866.91;;;21.22;100.00
54808;BME280;40708;50.364;7.550;2023-07-09T00:12:24;100872.34;;;21.20;100.00
54808;BME280;40708;50.364;7.550;2023-07-09T00:14:50;100865.25;;;21.18;100.00
54808;BME280;40708;50.364;7.550;2023-07-09T00:17:25;100879.72;;;21.15;100.00
54808;BME280;40708;50.364;7.550;2023-07-09T00:19:51;100889.69;;;21.13;100.00
54808;BME280;40708;50.364;7.550;2023-07-09T00:22:18;100894.31;;;21.10;100.00
54808;BME280;40708;50.364;7.550;2023-07-09T00:24:44;100902.53;;;21.05;100.00
54808;BME280;40708;50.364;7.550;2023-07-09T00:27:14;100927.84;;;21.01;100.00
54808;BME280;40708;50.364;7.550;2023-07-09T00:29:41;100928.91;;;20.97;100.00
54808;BME280;40708;50.364;7.550;2023-07-09T00:32:14;100954.16;;;20.95;100.00
54808;BME280;40708;50.364;7.550;2023-07-09T00:34:44;100968.78;;;20.88;100.00
54808;BME280;40708;50.364;7.550;2023-07-09T00:37:20;100986.03;;;20.82;100.00
54808;BME280;40708;50.364;7.550;2023-07-09T00:39:47;101013.25;;;20.76;100.00
54808;BME280;40708;50.364;7.550;2023-07-09T00:42:18;101010.72;;;20.70;100.00
54808;BME280;40708;50.364;7.550;2023-07-09T00:44:51;101017.88;;;20.71;100.00
54808;BME280;40708;50.364;7.550;2023-07-09T00:50:21;100988.97;;;20.76;100.00
54808;BME280;40708;50.364;7.550;2023-07-09T00:52:57;100976.50;;;20.72;100.00
54808;BME280;40708;50.364;7.550;2023-07-09T00:55:26;100977.50;;;20.69;100.00
54808;BME280;40708;50.364;7.550;2023-07-09T00:57:56;100974.00;;;20.66;100.00
54808;BME280;40708;50.364;7.550;2023-07-09T01:00:39;100989.34;;;20.64;100.00
54808;BME280;40708;50.364;7.550;2023-07-09T01:03:18;100978.72;;;20.59;100.00
54808;BME280;40708;50.364;7.550;2023-07-09T01:05:47;100986.94;;;20.55;100.00
54808;BME280;40708;50.364;7.550;2023-07-09T01:08:17;101006.94;;;20.48;100.00
54808;BME280;40708;50.364;7.550;2023-07-09T01:10:42;101008.84;;;20.44;100.00
54808;BME280;40708;50.364;7.550;2023-07-09T01:13:07;101016.19;;;20.39;100.00
54808;BME280;40708;50.364;7.550;2023-07-09T01:15:34;101020.94;;;20.31;100.00
54808;BME280;40708;50.364;7.550;2023-07-09T01:18:00;101017.50;;;20.26;100.00
54808;BME280;40708;50.364;7.550;2023-07-09T01:20:26;101017.63;;;20.22;100.00
54808;BME280;40708;50.364;7.550;2023-07-09T01:22:52;101037.53;;;20.16;100.00
54808;BME280;40708;50.364;7.550;2023-07-09T01:25:25;101045.72;;;20.11;100.00
54808;BME280;40708;50.364;7.550;2023-07-09T01:27:50;101053.06;;;20.06;100.00
54808;BME280;40708;50.364;7.550;2023-07-09T01:30:17;101057.63;;;20.04;100.00
54808;BME280;40708;50.364;7.550;2023-07-09T01:32:47;101047.75;;;20.05;100.00
54808;BME280;40708;50.364;7.550;2023-07-09T01:35:14;101052.28;;;20.03;100.00
54808;BME280;40708;50.364;7.550;2023-07-09T01:37:41;101058.81;;;19.94;100.00
54808;BME280;40708;50.364;7.550;2023-07-09T01:40:08;101071.44;;;19.92;100.00
54808;BME280;40708;50.364;7.550;2023-07-09T01:42:35;101090.25;;;19.94;100.00
54808;BME280;40708;50.364;7.550;2023-07-09T01:45:04;101092.19;;;19.89;100.00
54808;BME280;40708;50.364;7.550;2023-07-09T01:47:30;101104.91;;;19.84;100.00
54808;BME280;40708;50.364;7.550;2023-07-09T01:49:55;101133.75;;;19.79;100.00
54808;BME280;40708;50.364;7.550;2023-07-09T01:52:27;101151.88;;;19.72;100.00
54808;BME280;40708;50.364;7.550;2023-07-09T01:54:52;101165.56;;;19.63;100.00
54808;BME280;40708;50.364;7.550;2023-07-09T01:57:28;101202.47;;;19.58;100.00
54808;BME280;40708;50.364;7.550;2023-07-09T01:59:59;101221.53;;;19.49;100.00
54808;BME280;40708;50.364;7.550;2023-07-09T02:02:25;101235.06;;;19.46;100.00
54808;BME280;40708;50.364;7.550;2023-07-09T02:04:53;101227.09;;;19.43;100.00
54808;BME280;40708;50.364;7.550;2023-07-09T02:07:20;101233.44;;;19.40;100.00
54808;BME280;40708;50.364;7.550;2023-07-09T02:09:46;101230.78;;;19.36;100.00
54808;BME280;40708;50.364;7.550;2023-07-09T02:12:13;101248.00;;;19.29;100.00
54808;BME280;40708;50.364;7.550;2023-07-09T02:14:40;101267.81;;;19.25;100.00
54808;BME280;40708;50.364;7.550;2023-07-09T02:17:05;101270.56;;;19.23;100.00
54808;BME280;40708;50.364;7.550;2023-07-09T02:19:31;101282.28;;;19.19;100.00
54808;BME280;40708;50.364;7.550;2023-07-09T02:21:57;101283.16;;;19.20;100.00
54808;BME280;40708;50.364;7.550;2023-07-09T02:24:23;101281.38;;;19.19;100.00
54808;BME280;40708;50.364;7.550;2023-07-09T02:26:56;101272.47;;;19.17;100.00
54808;BME280;40708;50.364;7.550;2023-07-09T02:29:22;101268.94;;;19.15;100.00
54808;BME280;40708;50.364;7.550;2023-07-09T02:31:49;101272.66;;;19.09;100.00
54808;BME280;40708;50.364;7.550;2023-07-09T02:34:15;101272.69;;;19.08;100.00
54808;BME280;40708;50.364;7.550;2023-07-09T02:36:40;101265.59;;;19.03;100.00
54808;BME280;40708;50.364;7.550;2023-07-09T02:39:09;101278.22;;;19.00;100.00
54808;BME280;40708;50.364;7.550;2023-07-09T02:41:34;101286.34;;;18.97;100.00
54808;BME280;40708;50.364;7.550;2023-07-09T02:43:59;101293.63;;;18.92;100.00
54808;BME280;40708;50.364;7.550;2023-07-09T02:46:25;101305.31;;;18.89;100.00
54808;BME280;40708;50.364;7.550;2023-07-09T02:48:50;101326.03;;;18.86;100.00
54808;BME280;40708;50.364;7.550;2023-07-09T02:51:15;101318.91;;;18.82;100.00
54808;BME280;40708;50.364;7.550;2023-07-09T02:53:40;101329.72;;;18.80;100.00
54808;BME280;40708;50.364;7.550;2023-07-09T02:56:06;101331.53;;;18.80;100.00
54808;BME280;40708;50.364;7.550;2023-07-09T02:58:31;101332.47;;;18.76;100.00
54808;BME280;40708;50.364;7.550;2023-07-09T03:00:56;101349.56;;;18.73;100.00
54808;BME280;40708;50.364;7.550;2023-07-09T03:03:21;101353.22;;;18.69;100.00
54808;BME280;40708;50.364;7.550;2023-07-09T03:05:47;101352.44;;;18.64;100.00
54808;BME280;40708;50.364;7.550;2023-07-09T03:08:13;101365.03;;;18.61;100.00
54808;BME280;40708;50.364;7.550;2023-07-09T03:10:40;101388.38;;;18.59;100.00
54808;BME280;40708;50.364;7.550;2023-07-09T03:13:05;101381.25;;;18.55;100.00
54808;BME280;40708;50.364;7.550;2023-07-09T03:15:31;101387.56;;;18.52;100.00
54808;BME280;40708;50.364;7.550;2023-07-09T03:17:56;101418.03;;;18.51;100.00
54808;BME280;40708;50.364;7.550;2023-07-09T03:20:22;101424.34;;;18.49;100.00
54808;BME280;40708;50.364;7.550;2023-07-09T03:22:47;101444.09;;;18.44;100.00
54808;BME280;40708;50.364;7.550;2023-07-09T03:25:12;101446.84;;;18.41;100.00
54808;BME280;40708;50.364;7.550;2023-07-09T03:27:37;101445.00;;;18.43;100.00
54808;BME280;40708;50.364;7.550;2023-07-09T03:30:03;101448.53;;;18.45;100.00
54808;BME280;40708;50.364;7.550;2023-07-09T03:32:28;101440.47;;;18.50;100.00
54808;BME280;40708;50.364;7.550;2023-07-09T03:34:53;101431.47;;;18.51;100.00
54808;BME280;40708;50.364;7.550;2023-07-09T03:37:19;101427.94;;;18.51;100.00
54808;BME280;40708;50.364;7.550;2023-07-09T03:39:47;101426.97;;;18.53;100.00
54808;BME280;40708;50.364;7.550;2023-07-09T03:42:12;101429.63;;;18.56;100.00
54808;BME280;40708;50.364;7.550;2023-07-09T03:44:38;101418.78;;;18.59;100.00
54808;BME280;40708;50.364;7.550;2023-07-09T03:47:03;101407.94;;;18.67;100.00
54808;BME280;40708;50.364;7.550;2023-07-09T03:49:29;101396.16;;;18.74;100.00
54808;BME280;40708;50.364;7.550;2023-07-09T03:51:54;101378.97;;;18.81;100.00
54808;BME280;40708;50.364;7.550;2023-07-09T03:54:19;101378.88;;;18.87;100.00
54808;BME280;40708;50.364;7.550;2023-07-09T03:56:44;101375.19;;;18.92;100.00
54808;BME280;40708;50.364;7.550;2023-07-09T03:59:10;101370.53;;;19.02;100.00
54808;BME280;40708;50.364;7.550;2023-07-09T04:01:35;101369.38;;;19.15;100.00
54808;BME280;40708;50.364;7.550;2023-07-09T04:04:00;101355.75;;;19.23;100.00
54808;BME280;40708;50.364;7.550;2023-07-09T04:06:26;101340.38;;;19.29;100.00
54808;BME280;40708;50.364;7.550;2023-07-09T04:08:51;101331.09;;;19.45;100.00
54808;BME280;40708;50.364;7.550;2023-07-09T04:11:16;101307.28;;;19.66;100.00
54808;BME280;40708;50.364;7.550;2023-07-09T04:13:41;101283.47;;;19.86;100.00
54808;BME280;40708;50.364;7.550;2023-07-09T04:16:10;101251.69;;;20.00;100.00
54808;BME280;40708;50.364;7.550;2023-07-09T04:18:37;101227.78;;;20.22;100.00
54808;BME280;40708;50.364;7.550;2023-07-09T04:21:02;101201.03;;;20.48;100.00
54808;BME280;40708;50.364;7.550;2023-07-09T04:23:28;101156.25;;;20.73;100.00
54808;BME280;40708;50.364;7.550;2023-07-09T04:25:53;101117.66;;;20.99;100.00
54808;BME280;40708;50.364;7.550;2023-07-09T04:28:19;101094.94;;;21.35;100.00
54808;BME280;40708;50.364;7.550;2023-07-09T04:30:48;101061.69;;;21.59;100.00
54808;BME280;40708;50.364;7.550;2023-07-09T04:33:15;101021.84;;;21.90;100.00
54808;BME280;40708;50.364;7.550;2023-07-09T04:35:43;100988.41;;;22.18;100.00
54808;BME280;40708;50.364;7.550;2023-07-09T04:38:09;100949.22;;;22.51;100.00
54808;BME280;40708;50.364;7.550;2023-07-09T04:40:35;100934.22;;;22.87;100.00
54808;BME280;40708;50.364;7.550;2023-07-09T04:43:00;100899.00;;;23.09;100.00
54808;BME280;40708;50.364;7.550;2023-07-09T04:45:25;100874.25;;;23.38;100.00
54808;BME280;40708;50.364;7.550;2023-07-09T04:47:51;100850.78;;;23.57;100.00
54808;BME280;40708;50.364;7.550;2023-07-09T04:50:17;100819.78;;;24.00;100.00
54808;BME280;40708;50.364;7.550;2023-07-09T04:52:43;100811.84;;;24.33;100.00
54808;BME280;40708;50.364;7.550;2023-07-09T04:55:09;100803.94;;;24.64;100.00
54808;BME280;40708;50.364;7.550;2023-07-09T04:57:34;100783.41;;;25.10;100.00
54808;BME280;40708;50.364;7.550;2023-07-09T05:00:00;100761.13;;;25.36;100.00
54808;BME280;40708;50.364;7.550;2023-07-09T05:02:25;100757.34;;;25.39;100.00
54808;BME280;40708;50.364;7.550;2023-07-09T05:04:51;100755.06;;;25.31;100.00
54808;BME280;40708;50.364;7.550;2023-07-09T05:07:16;100751.25;;;25.35;100.00
54808;BME280;40708;50.364;7.550;2023-07-09T05:09:41;100739.09;;;25.58;100.00
54808;BME280;40708;50.364;7.550;2023-07-09T05:12:07;100743.84;;;25.55;100.00
54808;BME280;40708;50.364;7.550;2023-07-09T05:14:33;100741.81;;;25.74;100.00
54808;BME280;40708;50.364;7.550;2023-07-09T05:16:58;100732.41;;;26.11;100.00
54808;BME280;40708;50.364;7.550;2023-07-09T05:19:24;100730.16;;;26.19;100.00
54808;BME280;40708;50.364;7.550;2023-07-09T05:21:49;100724.00;;;25.99;100.00
54808;BME280;40708;50.364;7.550;2023-07-09T05:24:14;100713.34;;;26.56;100.00
54808;BME280;40708;50.364;7.550;2023-07-09T05:26:40;100711.03;;;26.64;100.00
54808;BME280;40708;50.364;7.550;2023-07-09T05:29:05;100706.53;;;26.93;100.00
54808;BME280;40708;50.364;7.550;2023-07-09T05:31:31;100709.94;;;26.96;100.00
54808;BME280;40708;50.364;7.550;2023-07-09T05:33:56;100709.41;;;26.76;100.00
54808;BME280;40708;50.364;7.550;2023-07-09T05:36:22;100700.81;;;27.26;100.00
54808;BME280;40708;50.364;7.550;2023-07-09T05:38:47;100698.00;;;27.68;100.00
54808;BME280;40708;50.364;7.550;2023-07-09T05:41:12;100703.69;;;27.92;100.00
54808;BME280;40708;50.364;7.550;2023-07-09T05:43:38;100702.75;;;27.78;100.00
54808;BME280;40708;50.364;7.550;2023-07-09T05:46:05;100701.75;;;27.94;100.00
54808;BME280;40708;50.364;7.550;2023-07-09T05:48:30;100702.72;;;28.19;100.00
54808;BME280;40708;50.364;7.550;2023-07-09T05:50:56;100696.78;;;28.52;100.00
54808;BME280;40708;50.364;7.550;2023-07-09T05:53:22;100691.16;;;28.68;100.00
54808;BME280;40708;50.364;7.550;2023-07-09T05:55:47;100691.16;;;28.93;100.00
54808;BME280;40708;50.364;7.550;2023-07-09T05:58:12;100691.03;;;29.45;100.00
54808;BME280;40708;50.364;7.550;2023-07-09T06:00:37;100698.84;;;28.75;100.00
54808;BME280;40708;50.364;7.550;2023-07-09T06:03:06;100698.88;;;28.61;100.00
54808;BME280;40708;50.364;7.550;2023-07-09T06:05:33;100709.09;;;29.22;100.00
54808;BME280;40708;50.364;7.550;2023-07-09T06:07:58;100710.50;;;28.77;100.00
54808;BME280;40708;50.364;7.550;2023-07-09T06:10:23;100704.38;;;29.12;100.00
54808;BME280;40708;50.364;7.550;2023-07-09T06:12:49;100695.00;;;29.16;100.00
54808;BME280;40708;50.364;7.550;2023-07-09T06:15:15;100699.34;;;29.18;100.00
54808;BME280;40708;50.364;7.550;2023-07-09T06:17:41;100704.56;;;29.59;100.00
54808;BME280;40708;50.364;7.550;2023-07-09T06:20:07;100701.69;;;30.21;100.00
54808;BME280;40708;50.364;7.550;2023-07-09T06:22:33;100710.25;;;30.40;100.00
54808;BME280;40708;50.364;7.550;2023-07-09T06:24:58;100705.00;;;30.37;100.00
54808;BME280;40708;50.364;7.550;2023-07-09T06:27:23;100718.94;;;30.10;100.00
54808;BME280;40708;50.364;7.550;2023-07-09T06:29:49;100705.00;;;30.72;100.00
54808;BME280;40708;50.364;7.550;2023-07-09T06:32:14;100702.13;;;31.52;100.00
54808;BME280;40708;50.364;7.550;2023-07-09T06:34:39;100704.28;;;31.80;96.45
54808;BME280;40708;50.364;7.550;2023-07-09T06:37:04;100704.00;;;32.06;91.94
54808;BME280;40708;50.364;7.550;2023-07-09T06:39:30;100703.72;;;31.44;100.00
54808;BME280;40708;50.364;7.550;2023-07-09T06:41:55;100700.81;;;31.78;97.14
54808;BME280;40708;50.364;7.550;2023-07-09T06:44:21;100702.97;;;31.53;96.35
54808;BME280;40708;50.364;7.550;2023-07-09T06:46:46;100694.72;;;31.64;94.85
54808;BME280;40708;50.364;7.550;2023-07-09T06:49:13;100698.88;;;31.25;96.06
54808;BME280;40708;50.364;7.550;2023-07-09T06:51:38;100697.34;;;31.32;99.95
54808;BME280;40708;50.364;7.550;2023-07-09T06:54:04;100692.69;;;30.88;100.00
54808;BME280;40708;50.364;7.550;2023-07-09T06:56:30;100688.22;;;30.76;100.00
54808;BME280;40708;50.364;7.550;2023-07-09T06:58:56;100689.28;;;31.31;97.89
54808;BME280;40708;50.364;7.550;2023-07-09T07:01:21;100684.13;;;31.70;96.12
54808;BME280;40708;50.364;7.550;2023-07-09T07:03:47;100684.53;;;30.99;100.00
54808;BME280;40708;50.364;7.550;2023-07-09T07:06:12;100686.84;;;31.81;95.22
54808;BME280;40708;50.364;7.550;2023-07-09T07:08:37;100692.41;;;31.91;88.74
54808;BME280;40708;50.364;7.550;2023-07-09T07:11:04;100681.28;;;32.15;86.45
54808;BME280;40708;50.364;7.550;2023-07-09T07:13:32;100678.44;;;32.78;80.74
54808;BME280;40708;50.364;7.550;2023-07-09T07:15:58;100681.91;;;32.39;78.90
54808;BME280;40708;50.364;7.550;2023-07-09T07:18:24;100673.63;;;32.50;80.45
54808;BME280;40708;50.364;7.550;2023-07-09T07:20:49;100668.47;;;32.77;78.99
54808;BME280;40708;50.364;7.550;2023-07-09T07:23:16;100660.09;;;33.79;70.82
54808;BME280;40708;50.364;7.550;2023-07-09T07:25:41;100664.28;;;33.64;71.46
54808;BME280;40708;50.364;7.550;2023-07-09T07:28:07;100659.00;;;33.12;73.07
54808;BME280;40708;50.364;7.550;2023-07-09T07:30:32;100661.31;;;33.16;73.98
54808;BME280;40708;50.364;7.550;2023-07-09T07:32:57;100660.81;;;33.02;78.92
54808;BME280;40708;50.364;7.550;2023-07-09T07:35:22;100662.09;;;33.68;72.97
54808;BME280;40708;50.364;7.550;2023-07-09T07:37:48;100661.75;;;33.12;77.28
54808;BME280;40708;50.364;7.550;2023-07-09T07:40:13;100665.44;;;33.71;71.87
54808;BME280;40708;50.364;7.550;2023-07-09T07:42:39;100660.16;;;34.18;68.92
54808;BME280;40708;50.364;7.550;2023-07-09T07:45:04;100663.50;;;34.21;68.30
54808;BME280;40708;50.364;7.550;2023-07-09T07:47:30;100662.75;;;34.09;68.34
54808;BME280;40708;50.364;7.550;2023-07-09T07:49:56;100646.34;;;35.21;61.08
54808;BME280;40708;50.364;7.550;2023-07-09T07:52:22;100654.66;;;35.39;56.83
54808;BME280;40708;50.364;7.550;2023-07-09T07:54:48;100647.09;;;34.67;60.39
54808;BME280;40708;50.364;7.550;2023-07-09T07:57:13;100647.09;;;34.67;59.98
54808;BME280;40708;50.364;7.550;2023-07-09T07:59:39;100652.47;;;34.59;60.66
54808;BME280;40708;50.364;7.550;2023-07-09T08:02:07;100648.94;;;34.77;60.88
54808;BME280;40708;50.364;7.550;2023-07-09T08:04:35;100650.72;;;34.39;65.29
54808;BME280;40708;50.364;7.550;2023-07-09T08:07:00;100649.28;;;35.10;59.65
54808;BME280;40708;50.364;7.550;2023-07-09T08:09:25;100643.22;;;35.07;61.56
54808;BME280;40708;50.364;7.550;2023-07-09T08:11:51;100650.78;;;35.87;56.26
54808;BME280;40708;50.364;7.550;2023-07-09T08:14:16;100655.81;;;35.19;58.64
54808;BME280;40708;50.364;7.550;2023-07-09T08:16:42;100645.16;;;36.06;55.81
54808;BME280;40708;50.364;7.550;2023-07-09T08:19:07;100631.69;;;36.64;52.10
54808;BME280;40708;50.364;7.550;2023-07-09T08:21:32;100629.31;;;36.51;52.72
54808;BME280;40708;50.364;7.550;2023-07-09T08:23:58;100635.66;;;36.26;52.85
54808;BME280;40708;50.364;7.550;2023-07-09T08:26:23;100630.94;;;35.56;57.72
54808;BME280;40708;50.364;7.550;2023-07-09T08:28:50;100637.31;;;35.29;59.09
54808;BME280;40708;50.364;7.550;2023-07-09T08:31:15;100634.91;;;35.71;57.49
54808;BME280;40708;50.364;7.550;2023-07-09T08:33:41;100631.06;;;35.27;57.62
54808;BME280;40708;50.364;7.550;2023-07-09T08:36:06;100629.88;;;36.80;53.24
54808;BME280;40708;50.364;7.550;2023-07-09T08:38:31;100630.47;;;37.18;51.12
54808;BME280;40708;50.364;7.550;2023-07-09T08:40:59;100628.78;;;37.25;49.75
54808;BME280;40708;50.364;7.550;2023-07-09T08:49:14;100625.78;;;37.18;51.92
54808;BME280;40708;50.364;7.550;2023-07-09T08:51:41;100628.59;;;37.60;48.42
54808;BME280;40708;50.364;7.550;2023-07-09T08:54:18;100625.06;;;37.08;47.52
54808;BME280;40708;50.364;7.550;2023-07-09T08:56:47;100615.44;;;37.62;47.68
54808;BME280;40708;50.364;7.550;2023-07-09T08:59:15;100622.06;;;37.77;47.70
54808;BME280;40708;50.364;7.550;2023-07-09T09:01:50;100623.72;;;37.12;48.55
54808;BME280;40708;50.364;7.550;2023-07-09T09:04:28;100614.69;;;37.10;49.70
54808;BME280;40708;50.364;7.550;2023-07-09T09:09:40;100612.00;;;37.26;48.77
54808;BME280;40708;50.364;7.550;2023-07-09T09:12:17;100613.59;;;37.29;48.16
54808;BME280;40708;50.364;7.550;2023-07-09T09:14:52;100595.50;;;37.42;47.83
54808;BME280;40708;50.364;7.550;2023-07-09T09:17:25;100594.31;;;37.45;46.96
54808;BME280;40708;50.364;7.550;2023-07-09T09:20:00;100596.06;;;37.62;47.09
54808;BME280;40708;50.364;7.550;2023-07-09T09:22:44;100598.22;;;37.34;47.67
54808;BME280;40708;50.364;7.550;2023-07-09T09:27:39;100575.72;;;37.37;48.12
54808;BME280;40708;50.364;7.550;2023-07-09T09:30:11;100576.00;;;37.68;47.68
54808;BME280;40708;50.364;7.550;2023-07-09T09:32:47;100578.63;;;37.70;46.37
54808;BME280;40708;50.364;7.550;2023-07-09T09:35:15;100584.59;;;37.49;46.56
54808;BME280;40708;50.364;7.550;2023-07-09T09:37:49;100588.31;;;37.32;46.65
54808;BME280;40708;50.364;7.550;2023-07-09T09:40:17;100580.38;;;38.19;45.00
54808;BME280;40708;50.364;7.550;2023-07-09T09:42:43;100577.28;;;38.14;43.36
54808;BME280;40708;50.364;7.550;2023-07-09T09:45:13;100581.44;;;38.02;44.16
54808;BME280;40708;50.364;7.550;2023-07-09T09:47:40;100575.84;;;38.75;43.02
54808;BME280;40708;50.364;7.550;2023-07-09T09:50:06;100566.66;;;38.74;42.19
54808;BME280;40708;50.364;7.550;2023-07-09T09:52:31;100569.81;;;38.31;42.30
54808;BME280;40708;50.364;7.550;2023-07-09T09:55:12;100573.19;;;39.05;41.88
54808;BME280;40708;50.364;7.550;2023-07-09T09:57:38;100567.59;;;37.94;42.65
54808;BME280;40708;50.364;7.550;2023-07-09T10:00:04;100571.59;;;38.16;42.01
54808;BME280;40708;50.364;7.550;2023-07-09T10:02:38;100570.69;;;38.63;41.94
54808;BME280;40708;50.364;7.550;2023-07-09T10:05:11;100567.91;;;39.26;39.71
54808;BME280;40708;50.364;7.550;2023-07-09T10:07:59;100564.72;;;39.68;38.85
54808;BME280;40708;50.364;7.550;2023-07-09T10:10:28;100565.47;;;38.68;40.21
54808;BME280;40708;50.364;7.550;2023-07-09T10:13:15;100556.16;;;38.29;40.64
54808;BME280;40708;50.364;7.550;2023-07-09T10:18:57;100545.38;;;37.12;42.58
54808;BME280;40708;50.364;7.550;2023-07-09T10:21:34;100543.34;;;38.20;41.18
54808;BME280;40708;50.364;7.550;2023-07-09T10:26:58;100546.81;;;37.90;42.19
54808;BME280;40708;50.364;7.550;2023-07-09T10:32:46;100550.16;;;38.97;39.89
54808;BME280;40708;50.364;7.550;2023-07-09T10:35:22;100546.09;;;39.15;40.10
54808;BME280;40708;50.364;7.550;2023-07-09T10:40:46;100537.63;;;38.46;40.57
54808;BME280;40708;50.364;7.550;2023-07-09T10:43:22;100530.06;;;38.87;40.38
54808;BME280;40708;50.364;7.550;2023-07-09T10:45:54;100535.72;;;38.38;39.88
54808;BME280;40708;50.364;7.550;2023-07-09T10:48:55;100532.97;;;37.98;40.73
54808;BME280;40708;50.364;7.550;2023-07-09T10:54:29;100522.16;;;38.76;38.68
54808;BME280;40708;50.364;7.550;2023-07-09T10:57:02;100510.75;;;39.40;37.53
54808;BME280;40708;50.364;7.550;2023-07-09T10:59:32;100506.25;;;39.70;36.82
54808;BME280;40708;50.364;7.550;2023-07-09T11:04:43;100506.31;;;40.22;35.51
54808;BME280;40708;50.364;7.550;2023-07-09T11:07:14;100512.41;;;39.49;35.57
54808;BME280;40708;50.364;7.550;2023-07-09T11:09:44;100519.53;;;39.21;35.43
54808;BME280;40708;50.364;7.550;2023-07-09T11:12:12;100503.66;;;39.60;35.22
54808;BME280;40708;50.364;7.550;2023-07-09T11:14:55;100496.72;;;39.34;34.95
54808;BME280;40708;50.364;7.550;2023-07-09T11:17:22;100500.78;;;39.54;35.62
54808;BME280;40708;50.364;7.550;2023-07-09T11:19:58;100504.53;;;39.38;34.97
54808;BME280;40708;50.364;7.550;2023-07-09T11:22:27;100500.84;;;39.07;35.06
54808;BME280;40708;50.364;7.550;2023-07-09T11:25:14;100493.59;;;38.98;35.34
54808;BME280;40708;50.364;7.550;2023-07-09T11:27:50;100491.38;;;38.93;35.67
54808;BME280;40708;50.364;7.550;2023-07-09T11:30:27;100491.09;;;38.80;35.41
54808;BME280;40708;50.364;7.550;2023-07-09T11:32:59;100497.22;;;38.59;35.86
54808;BME280;40708;50.364;7.550;2023-07-09T11:35:28;100482.47;;;38.67;35.62
54808;BME280;40708;50.364;7.550;2023-07-09T11:37:54;100482.16;;;39.01;35.61
54808;BME280;40708;50.364;7.550;2023-07-09T11:40:22;100483.56;;;38.50;35.60
54808;BME280;40708;50.364;7.550;2023-07-09T11:42:56;100484.34;;;38.83;35.88
54808;BME280;40708;50.364;7.550;2023-07-09T11:45:31;100479.16;;;38.71;35.68
54808;BME280;40708;50.364;7.550;2023-07-09T11:50:35;100480.19;;;39.09;35.41
54808;BME280;40708;50.364;7.550;2023-07-09T11:53:16;100476.53;;;39.48;35.44
54808;BME280;40708;50.364;7.550;2023-07-09T11:55:46;100479.94;;;39.80;35.37
54808;BME280;40708;50.364;7.550;2023-07-09T11:58:17;100484.19;;;39.68;34.69
54808;BME280;40708;50.364;7.550;2023-07-09T12:00:55;100480.16;;;39.17;35.92
54808;BME280;40708;50.364;7.550;2023-07-09T12:03:25;100482.47;;;39.06;35.48
54808;BME280;40708;50.364;7.550;2023-07-09T12:05:53;100479.53;;;39.07;35.95
54808;BME280;40708;50.364;7.550;2023-07-09T12:08:34;100479.16;;;38.71;36.99
54808;BME280;40708;50.364;7.550;2023-07-09T12:11:00;100472.41;;;38.66;36.70
54808;BME280;40708;50.364;7.550;2023-07-09T12:13:25;100468.03;;;38.71;37.24
54808;BME280;40708;50.364;7.550;2023-07-09T12:15:51;100470.25;;;38.45;37.64
54808;BME280;40708;50.364;7.550;2023-07-09T12:18:16;100466.06;;;38.41;38.29
54808;BME280;40708;50.364;7.550;2023-07-09T12:20:49;100470.16;;;38.69;37.31
54808;BME280;40708;50.364;7.550;2023-07-09T12:23:27;100460.41;;;38.73;36.54
54808;BME280;40708;50.364;7.550;2023-07-09T12:25:54;100465.38;;;38.47;36.00
54808;BME280;40708;50.364;7.550;2023-07-09T12:28:21;100466.34;;;37.91;36.85
54808;BME280;40708;50.364;7.550;2023-07-09T12:30:48;100459.38;;;37.95;36.94
54808;BME280;40708;50.364;7.550;2023-07-09T12:33:22;100459.16;;;38.29;36.56
54808;BME280;40708;50.364;7.550;2023-07-09T12:35:59;100460.94;;;38.06;36.18
54808;BME280;40708;50.364;7.550;2023-07-09T12:38:29;100457.78;;;38.33;35.50
54808;BME280;40708;50.364;7.550;2023-07-09T12:40:55;100447.38;;;38.27;35.66
54808;BME280;40708;50.364;7.550;2023-07-09T12:43:31;100452.34;;;38.56;35.04
54808;BME280;40708;50.364;7.550;2023-07-09T12:45:59;100438.06;;;38.12;35.33
54808;BME280;40708;50.364;7.550;2023-07-09T12:48:29;100427.66;;;38.77;34.85
54808;BME280;40708;50.364;7.550;2023-07-09T12:50:59;100431.47;;;38.37;34.72
54808;BME280;40708;50.364;7.550;2023-07-09T12:53:28;100414.72;;;38.61;34.48
54808;BME280;40708;50.364;7.550;2023-07-09T12:55:56;100419.09;;;38.56;34.18
54808;BME280;40708;50.364;7.550;2023-07-09T12:58:29;100421.34;;;38.52;34.22
54808;BME280;40708;50.364;7.550;2023-07-09T13:00:56;100418.88;;;37.94;34.34
54808;BME280;40708;50.364;7.550;2023-07-09T13:03:30;100419.31;;;38.30;34.26
54808;BME280;40708;50.364;7.550;2023-07-09T13:06:01;100416.88;;;38.27;34.34
54808;BME280;40708;50.364;7.550;2023-07-09T13:08:28;100397.31;;;38.29;34.35
54808;BME280;40708;50.364;7.550;2023-07-09T13:10:54;100401.75;;;37.99;35.02
54808;BME280;40708;50.364;7.550;2023-07-09T13:13:22;100401.22;;;37.95;35.21
54808;BME280;40708;50.364;7.550;2023-07-09T13:15:59;100404.47;;;38.15;34.78
54808;BME280;40708;50.364;7.550;2023-07-09T13:18:27;100400.63;;;38.24;35.16
54808;BME280;40708;50.364;7.550;2023-07-09T13:20:56;100396.47;;;38.20;35.64
54808;BME280;40708;50.364;7.550;2023-07-09T13:23:26;100400.38;;;37.54;36.02